createdAt,value
2023-02-14T00:00:47.632Z,68.26
2023-02-14T00:03:50.437Z,67.70
2023-02-14T00:06:53.225Z,67.75
2023-02-14T00:09:56.064Z,67.21
2023-02-14T00:12:58.884Z,67.18
2023-02-14T00:16:01.811Z,68.03
2023-02-14T00:19:04.635Z,67.44
2023-02-14T00:22:08.313Z,67.44
2023-02-14T00:25:11.268Z,68.36
2023-02-14T00:28:13.968Z,68.23
2023-02-14T00:31:16.994Z,67.97
2023-02-14T00:34:20.607Z,68.72
2023-02-14T00:37:24.329Z,68.50
2023-02-14T00:40:29.153Z,68.94
2023-02-14T00:43:33.157Z,69.45
2023-02-14T00:46:36.016Z,69.69
2023-02-14T00:49:39.073Z,69.73
2023-02-14T00:52:41.915Z,71.33
2023-02-14T00:55:46.461Z,70.96
2023-02-14T00:58:50.821Z,71.24
2023-02-14T01:01:53.958Z,71.40
2023-02-14T01:04:56.770Z,72.25
2023-02-14T01:07:59.545Z,71.74
2023-02-14T01:11:18.470Z,72.42
2023-02-14T01:14:21.889Z,72.64
2023-02-14T01:17:25.625Z,72.80
2023-02-14T01:20:28.767Z,72.30
2023-02-14T01:23:31.548Z,72.59
2023-02-14T01:26:35.654Z,72.81
2023-02-14T01:29:38.914Z,72.43
2023-02-14T01:32:42.534Z,72.44
2023-02-14T01:35:45.251Z,73.04
2023-02-14T01:38:51.124Z,72.52
2023-02-14T01:41:56.032Z,72.39
2023-02-14T01:45:14.611Z,72.55
2023-02-14T01:48:21.796Z,72.19
2023-02-14T01:51:25.067Z,72.60
2023-02-14T01:54:31.994Z,72.58
2023-02-14T01:57:43.714Z,72.46
2023-02-14T02:00:59.546Z,72.47
2023-02-14T02:04:09.569Z,72.78
2023-02-14T02:07:21.523Z,73.23
2023-02-14T02:10:25.455Z,72.51
2023-02-14T02:13:28.192Z,72.95
2023-02-14T02:17:09.943Z,73.49
2023-02-14T02:20:22.244Z,73.92
2023-02-14T02:23:43.587Z,74.46
2023-02-14T02:27:20.048Z,74.63
2023-02-14T02:30:25.778Z,74.49
2023-02-14T02:33:53.710Z,74.37
2023-02-14T02:37:05.570Z,75.30
2023-02-14T02:40:08.238Z,75.67
2023-02-14T02:43:32.734Z,75.05
2023-02-14T02:47:02.676Z,75.11
2023-02-14T02:50:48.927Z,75.23
2023-02-14T02:54:17.630Z,74.95
2023-02-14T02:57:31.057Z,74.68
2023-02-14T03:00:34.192Z,74.69
2023-02-14T03:03:58.089Z,74.46
2023-02-14T03:07:01.333Z,74.37
2023-02-14T03:10:16.087Z,74.14
2023-02-14T03:13:43.732Z,74.15
2023-02-14T03:17:03.842Z,74.44
2023-02-14T03:20:20.229Z,74.14
2023-02-14T03:23:32.294Z,74.24
2023-02-14T03:27:18.156Z,73.65
2023-02-14T03:30:45.039Z,73.59
2023-02-14T03:33:48.324Z,73.81
2023-02-14T03:37:11.693Z,73.74
2023-02-14T03:40:31.475Z,74.14
2023-02-14T03:43:39.399Z,73.84
2023-02-14T03:46:56.801Z,73.62
2023-02-14T03:50:05.617Z,73.90
2023-02-14T03:53:11.352Z,73.93
2023-02-14T03:56:26.106Z,73.83
2023-02-14T03:59:29.681Z,73.18
2023-02-14T04:02:41.243Z,73.22
2023-02-14T04:05:52.555Z,73.48
2023-02-14T04:08:55.821Z,73.55
2023-02-14T04:11:58.935Z,73.20
2023-02-14T04:15:01.692Z,73.67
2023-02-14T04:18:25.111Z,73.28
2023-02-14T04:21:27.922Z,73.50
2023-02-14T04:24:30.685Z,73.78
2023-02-14T04:27:33.518Z,73.65
2023-02-14T04:30:36.342Z,73.88
2023-02-14T04:33:39.480Z,73.62
2023-02-14T04:36:42.358Z,73.73
2023-02-14T04:39:45.604Z,73.60
2023-02-14T04:42:48.591Z,73.95
2023-02-14T04:45:51.301Z,73.91
2023-02-14T04:48:54.096Z,74.34
2023-02-14T04:51:57.348Z,74.59
2023-02-14T04:55:00.173Z,74.69
2023-02-14T04:58:02.877Z,74.60
2023-02-14T05:01:05.813Z,74.55
2023-02-14T05:04:08.993Z,74.35
2023-02-14T05:07:12.518Z,74.74
2023-02-14T05:10:15.525Z,74.67
2023-02-14T05:13:18.359Z,74.61
2023-02-14T05:16:21.566Z,74.55
2023-02-14T05:19:24.564Z,74.94
2023-02-14T05:22:27.694Z,74.26
2023-02-14T05:25:31.368Z,74.62
2023-02-14T05:28:35.128Z,74.62
2023-02-14T05:31:38.115Z,74.11
2023-02-14T05:34:40.949Z,73.99
2023-02-14T05:37:43.862Z,73.49
2023-02-14T05:40:46.735Z,73.70
2023-02-14T05:43:49.574Z,73.75
2023-02-14T05:46:52.518Z,73.72
2023-02-14T05:49:55.317Z,74.08
2023-02-14T05:52:58.542Z,73.83
2023-02-14T05:56:02.214Z,73.35
2023-02-14T05:59:05.023Z,73.41
2023-02-14T06:02:07.922Z,73.22
2023-02-14T06:05:11.016Z,73.38
2023-02-14T06:08:13.803Z,73.13
2023-02-14T06:11:16.616Z,73.38
2023-02-14T06:14:19.613Z,73.23
2023-02-14T06:17:22.327Z,73.42
2023-02-14T06:20:25.408Z,73.57
2023-02-14T06:23:28.216Z,73.43
2023-02-14T06:26:31.246Z,72.95
2023-02-14T06:29:34.447Z,73.35
2023-02-14T06:32:37.315Z,73.15
2023-02-14T06:35:40.076Z,73.05
2023-02-14T06:38:43.863Z,73.27
2023-02-14T06:41:49.634Z,73.68
2023-02-14T06:44:52.549Z,73.59
2023-02-14T06:47:55.419Z,73.44
2023-02-14T06:50:58.672Z,73.53
2023-02-14T06:54:02.567Z,73.24
2023-02-14T06:57:05.464Z,73.22
2023-02-14T07:00:08.950Z,72.74
2023-02-14T07:03:11.920Z,72.90
2023-02-14T07:06:15.069Z,72.35
2023-02-14T07:09:20.567Z,72.16
2023-02-14T07:12:23.913Z,72.04
2023-02-14T07:15:27.730Z,71.77
2023-02-14T07:18:33.337Z,71.88
2023-02-14T07:21:36.559Z,71.74
2023-02-14T07:24:40.869Z,71.95
2023-02-14T07:27:44.381Z,72.13
2023-02-14T07:30:47.327Z,71.85
2023-02-14T07:33:52.094Z,71.38
2023-02-14T07:36:55.107Z,71.13
2023-02-14T07:40:00.088Z,71.28
2023-02-14T07:43:03.452Z,71.63
2023-02-14T07:46:07.048Z,70.44
2023-02-14T07:49:10.062Z,70.79
2023-02-14T07:52:13.078Z,70.90
2023-02-14T07:55:16.527Z,70.80
2023-02-14T07:58:27.620Z,69.92
2023-02-14T08:01:31.102Z,70.34
2023-02-14T08:04:34.534Z,69.99
2023-02-14T08:07:37.862Z,71.18
2023-02-14T08:10:40.714Z,70.01
2023-02-14T08:13:45.312Z,69.75
2023-02-14T08:16:48.418Z,70.30
2023-02-14T08:19:51.534Z,70.23
2023-02-14T08:22:54.424Z,69.11
2023-02-14T08:25:57.616Z,69.82
2023-02-14T08:29:02.184Z,69.55
2023-02-14T08:32:06.623Z,69.14
2023-02-14T08:35:10.134Z,69.17
2023-02-14T08:38:13.419Z,69.32
2023-02-14T08:41:18.012Z,68.17
2023-02-14T08:44:21.038Z,67.87
2023-02-14T08:47:23.990Z,66.82
2023-02-14T08:50:27.361Z,65.10
2023-02-14T08:53:30.383Z,64.65
2023-02-14T08:56:33.494Z,64.47
2023-02-14T08:59:36.365Z,63.97
2023-02-14T09:02:39.414Z,64.03
2023-02-14T09:05:42.312Z,64.62
2023-02-14T09:08:45.645Z,64.26
2023-02-14T09:11:48.694Z,63.69
2023-02-14T09:14:51.756Z,63.09
2023-02-14T09:17:54.731Z,63.46
2023-02-14T09:20:58.211Z,62.31
2023-02-14T09:24:01.216Z,62.38
2023-02-14T09:27:07.400Z,63.28
2023-02-14T09:30:11.656Z,62.62
2023-02-14T09:33:14.533Z,62.13
2023-02-14T09:36:20.764Z,62.72
2023-02-14T09:39:23.799Z,62.58
2023-02-14T09:42:47.979Z,62.68
2023-02-14T09:45:56.207Z,62.39
2023-02-14T09:49:00.539Z,62.06
2023-02-14T09:52:07.877Z,61.03
2023-02-14T09:55:16.377Z,61.30
2023-02-14T09:58:23.706Z,60.87
2023-02-14T10:02:03.287Z,59.85
2023-02-14T10:05:30.946Z,59.82
2023-02-14T10:09:08.000Z,59.41
2023-02-14T10:12:20.650Z,59.44
2023-02-14T10:15:32.414Z,59.91
2023-02-14T10:18:52.444Z,59.29
2023-02-14T10:22:00.843Z,59.42
2023-02-14T10:25:14.269Z,59.50
2023-02-14T10:28:40.410Z,59.29
2023-02-14T10:32:04.673Z,59.69
2023-02-14T10:35:54.272Z,59.12
2023-02-14T10:39:12.294Z,59.11
2023-02-14T10:42:43.159Z,59.17
2023-02-14T10:45:57.069Z,59.17
2023-02-14T10:49:20.241Z,58.46
2023-02-14T10:52:43.988Z,59.42
2023-02-14T10:55:55.412Z,57.99
2023-02-14T10:59:02.792Z,58.42
2023-02-14T11:02:11.049Z,58.45
2023-02-14T11:05:27.176Z,58.95
2023-02-14T11:08:48.452Z,58.23
2023-02-14T11:11:57.376Z,58.19
2023-02-14T11:15:15.167Z,58.14
2023-02-14T11:18:24.132Z,58.37
2023-02-14T11:21:38.005Z,58.32
2023-02-14T11:24:45.533Z,57.88
2023-02-14T11:27:52.260Z,57.33
2023-02-14T11:30:55.532Z,57.74
2023-02-14T11:33:59.409Z,57.46
2023-02-14T11:37:04.165Z,57.49
2023-02-14T11:40:07.852Z,57.53
2023-02-14T11:43:14.366Z,57.27
2023-02-14T11:46:20.700Z,57.18
2023-02-14T11:49:32.433Z,56.55
2023-02-14T11:52:48.515Z,56.16
2023-02-14T11:55:59.580Z,56.20
2023-02-14T11:59:06.176Z,55.68
2023-02-14T12:02:39.212Z,55.95
2023-02-14T12:05:50.409Z,55.61
2023-02-14T12:09:11.510Z,56.47
2023-02-14T12:12:23.428Z,56.36
2023-02-14T12:15:47.193Z,55.88
2023-02-14T12:19:00.356Z,55.47
2023-02-14T12:22:34.274Z,55.05
2023-02-14T12:25:44.493Z,55.61
2023-02-14T12:28:59.764Z,56.59
2023-02-14T12:32:21.097Z,56.05
2023-02-14T12:35:45.113Z,56.57
2023-02-14T12:39:02.680Z,56.43
2023-02-14T12:42:23.569Z,56.61
2023-02-14T12:45:52.081Z,56.64
2023-02-14T12:49:22.784Z,56.72
2023-02-14T12:52:50.080Z,56.86
2023-02-14T12:56:07.510Z,57.02
2023-02-14T12:59:26.484Z,56.81
2023-02-14T13:03:00.251Z,56.11
2023-02-14T13:06:09.270Z,56.69
2023-02-14T13:09:24.025Z,56.54
2023-02-14T13:12:48.717Z,56.20
2023-02-14T13:15:58.569Z,56.28
2023-02-14T13:19:37.833Z,56.01
2023-02-14T13:22:42.190Z,56.19
2023-02-14T13:25:56.133Z,55.60
2023-02-14T13:29:07.193Z,55.09
2023-02-14T13:32:14.363Z,55.43
2023-02-14T13:35:20.296Z,55.61
2023-02-14T13:38:24.633Z,56.13
2023-02-14T13:41:28.470Z,55.92
2023-02-14T13:44:43.561Z,55.80
2023-02-14T13:47:46.685Z,55.76
2023-02-14T13:50:51.817Z,56.03
2023-02-14T13:53:55.184Z,55.30
2023-02-14T13:57:01.102Z,55.28
2023-02-14T14:00:19.439Z,55.55
2023-02-14T14:03:28.040Z,55.88
2023-02-14T14:07:02.973Z,56.29
2023-02-14T14:10:06.624Z,56.07
2023-02-14T14:13:09.323Z,56.28
2023-02-14T14:16:24.543Z,57.08
2023-02-14T14:19:27.369Z,56.30
2023-02-14T14:22:30.728Z,57.36
2023-02-14T14:25:39.866Z,56.91
2023-02-14T14:28:46.496Z,56.80
2023-02-14T14:31:55.593Z,57.55
2023-02-14T14:35:01.141Z,56.71
2023-02-14T14:38:04.142Z,56.57
2023-02-14T14:41:07.085Z,57.13
2023-02-14T14:44:10.540Z,57.10
2023-02-14T14:47:20.190Z,57.43
2023-02-14T14:50:25.791Z,57.79
2023-02-14T14:53:37.422Z,58.57
2023-02-14T14:56:56.951Z,58.39
2023-02-14T15:00:28.936Z,58.17
2023-02-14T15:03:31.895Z,58.58
2023-02-14T15:06:34.634Z,58.32
2023-02-14T15:09:37.910Z,58.33
2023-02-14T15:12:59.194Z,59.05
2023-02-14T15:16:03.876Z,59.02
2023-02-14T15:19:21.118Z,59.12
2023-02-14T15:22:34.397Z,58.75
2023-02-14T15:25:38.517Z,59.25
2023-02-14T15:28:41.508Z,59.20
2023-02-14T15:31:45.457Z,59.60
2023-02-14T15:34:49.078Z,59.71
2023-02-14T15:37:53.525Z,59.70
2023-02-14T15:40:56.942Z,59.86
2023-02-14T15:43:59.813Z,60.61
2023-02-14T15:47:05.920Z,60.14
2023-02-14T15:50:26.173Z,60.74
2023-02-14T15:53:45.598Z,60.74
2023-02-14T15:56:51.620Z,60.88
2023-02-14T15:59:55.299Z,61.71
2023-02-14T16:03:06.367Z,61.36
2023-02-14T16:06:31.446Z,61.60
2023-02-14T16:09:34.813Z,60.86
2023-02-14T16:12:40.631Z,60.94
2023-02-14T16:16:04.370Z,61.21
2023-02-14T16:19:34.365Z,61.70
2023-02-14T16:22:37.222Z,62.18
2023-02-14T16:25:41.552Z,62.21
2023-02-14T16:28:44.548Z,61.58
2023-02-14T16:32:14.626Z,61.73
2023-02-14T16:35:19.998Z,62.14
2023-02-14T16:38:23.296Z,62.39
2023-02-14T16:41:28.599Z,61.75
2023-02-14T16:44:32.255Z,62.52
2023-02-14T16:47:35.259Z,62.06
2023-02-14T16:50:40.761Z,62.96
2023-02-14T16:53:43.644Z,62.21
2023-02-14T16:57:02.419Z,62.56
2023-02-14T17:00:07.473Z,62.52
2023-02-14T17:03:11.734Z,62.45
2023-02-14T17:06:19.157Z,62.38
2023-02-14T17:09:32.996Z,62.51
2023-02-14T17:12:41.791Z,62.25
2023-02-14T17:15:44.666Z,62.76
2023-02-14T17:18:51.973Z,63.50
2023-02-14T17:21:58.213Z,62.72
2023-02-14T17:25:03.208Z,63.56
2023-02-14T17:28:06.169Z,64.00
2023-02-14T17:31:09.368Z,64.53
2023-02-14T17:34:12.372Z,64.40
2023-02-14T17:37:19.140Z,64.01
2023-02-14T17:40:22.259Z,63.84
2023-02-14T17:43:25.495Z,64.27
2023-02-14T17:46:30.109Z,63.98
2023-02-14T17:49:33.209Z,64.50
2023-02-14T17:52:36.376Z,64.38
2023-02-14T17:55:39.341Z,64.17
2023-02-14T17:58:42.377Z,64.40
2023-02-14T18:01:45.396Z,64.25
2023-02-14T18:04:48.576Z,64.65
2023-02-14T18:07:52.562Z,64.54
2023-02-14T18:10:56.175Z,64.63
2023-02-14T18:14:00.124Z,63.96
2023-02-14T18:17:03.146Z,65.21
2023-02-14T18:20:06.841Z,65.52
2023-02-14T18:23:10.029Z,65.96
2023-02-14T18:26:15.229Z,65.81
2023-02-14T18:29:18.556Z,65.82
2023-02-14T18:32:21.711Z,65.64
2023-02-14T18:35:24.813Z,65.93
2023-02-14T18:38:28.200Z,66.02
2023-02-14T18:41:31.292Z,66.42
2023-02-14T18:44:34.416Z,66.76
2023-02-14T18:47:40.675Z,67.03
2023-02-14T18:50:43.717Z,67.19
2023-02-14T18:53:47.948Z,67.51
2023-02-14T18:56:51.146Z,67.83
2023-02-14T18:59:54.099Z,68.46
2023-02-14T19:02:57.105Z,68.42
2023-02-14T19:06:00.696Z,68.39
2023-02-14T19:09:09.572Z,68.65
2023-02-14T19:12:12.975Z,68.78
2023-02-14T19:15:16.499Z,69.11
2023-02-14T19:18:20.539Z,69.15
2023-02-14T19:21:26.329Z,69.68
2023-02-14T19:24:29.227Z,70.66
2023-02-14T19:27:34.625Z,70.83
2023-02-14T19:30:38.568Z,72.18
2023-02-14T19:33:44.264Z,72.58
2023-02-14T19:36:49.094Z,73.31
2023-02-14T19:39:52.452Z,74.23
2023-02-14T19:42:55.597Z,75.44
2023-02-14T19:45:58.785Z,75.69
2023-02-14T19:49:04.420Z,76.30
2023-02-14T19:52:25.773Z,77.39
2023-02-14T19:55:29.427Z,78.02
2023-02-14T19:58:32.398Z,78.29
2023-02-14T20:01:43.116Z,78.78
2023-02-14T20:04:46.080Z,78.95
2023-02-14T20:07:52.031Z,79.25
2023-02-14T20:10:55.121Z,78.47
2023-02-14T20:13:58.859Z,79.52
2023-02-14T20:17:04.051Z,80.06
2023-02-14T20:20:08.572Z,79.91
2023-02-14T20:23:11.830Z,80.04
2023-02-14T20:26:15.672Z,80.63
2023-02-14T20:29:22.380Z,80.84
2023-02-14T20:32:25.767Z,81.03
2023-02-14T20:35:34.222Z,80.88
2023-02-14T20:38:37.583Z,81.67
2023-02-14T20:41:40.925Z,81.53
2023-02-14T20:44:45.470Z,81.98
2023-02-14T20:47:49.105Z,82.46
2023-02-14T20:50:52.193Z,82.25
2023-02-14T20:53:56.016Z,82.98
2023-02-14T20:56:59.964Z,83.15
2023-02-14T21:00:04.741Z,83.21
2023-02-14T21:03:07.938Z,83.75
2023-02-14T21:06:13.846Z,83.74
2023-02-14T21:09:18.716Z,83.63
2023-02-14T21:12:21.947Z,84.02
2023-02-14T21:15:25.285Z,84.10
2023-02-14T21:18:29.204Z,83.63
2023-02-14T21:21:36.381Z,83.69
2023-02-14T21:24:40.647Z,83.79
2023-02-14T21:27:43.766Z,83.75
2023-02-14T21:30:46.903Z,83.34
2023-02-14T21:33:57.097Z,84.02
2023-02-14T21:37:00.129Z,84.81
2023-02-14T21:40:03.962Z,85.27
2023-02-14T21:43:07.376Z,85.46
2023-02-14T21:46:12.985Z,85.54
2023-02-14T21:49:51.605Z,85.78
2023-02-14T21:52:54.551Z,85.73
2023-02-14T21:56:12.015Z,85.85
2023-02-14T21:59:15.472Z,86.34
2023-02-14T22:02:18.971Z,86.29
2023-02-14T22:05:22.089Z,86.05
2023-02-14T22:08:25.209Z,86.66
2023-02-14T22:11:29.285Z,86.87
2023-02-14T22:14:32.280Z,86.94
2023-02-14T22:17:35.846Z,87.31
2023-02-14T22:20:38.620Z,87.21
2023-02-14T22:23:41.454Z,87.50
2023-02-14T22:26:44.241Z,87.93
2023-02-14T22:29:47.145Z,88.34
2023-02-14T22:32:50.198Z,88.40
2023-02-14T22:35:57.258Z,88.27
2023-02-14T22:39:00.093Z,88.77
2023-02-14T22:42:06.915Z,88.69
2023-02-14T22:45:10.326Z,89.04
2023-02-14T22:48:15.074Z,89.42
2023-02-14T22:51:30.076Z,89.17
2023-02-14T22:54:33.476Z,89.46
2023-02-14T22:57:36.239Z,89.76
2023-02-14T23:00:39.067Z,89.56
2023-02-14T23:03:42.732Z,89.78
2023-02-14T23:06:45.708Z,89.63
2023-02-14T23:09:49.687Z,89.67
2023-02-14T23:13:11.084Z,89.68
2023-02-14T23:16:32.440Z,89.62
2023-02-14T23:19:55.438Z,89.87
2023-02-14T23:22:58.127Z,90.06
2023-02-14T23:26:01.409Z,90.21
2023-02-14T23:29:04.554Z,90.38
2023-02-14T23:32:08.320Z,90.28
2023-02-14T23:35:11.235Z,90.25
2023-02-14T23:38:14.365Z,90.86
2023-02-14T23:41:35.619Z,90.24
2023-02-14T23:44:38.465Z,90.28
2023-02-14T23:47:41.256Z,90.71
2023-02-14T23:50:44.070Z,90.66
2023-02-14T23:53:46.894Z,90.51
2023-02-14T23:56:51.014Z,90.44
2023-02-14T23:59:53.775Z,90.61
